Time;durP1;ratioP1;P1;durP2;ratioP2;P2;SDS_P1;SDS_P2;PMS_P1;PMS_P2;Temp;Humidity;BMP_temperature;BMP_pressure;BME280_temperature;BME280_humidity;BME280_pressure;Samples;Min_cycle;Max_cycle;Signal;HPM_P1;HPM_P2
2022/11/25 00:02:18;;;;;;;11.75;3.72;;;10.20;99.90;;;;;;5071776;28;20388;-81
2022/11/25 00:04:44;;;;;;;7.70;3.53;;;10.40;99.90;;;;;;5071244;28;20503;-81
2022/11/25 00:07:10;;;;;;;10.35;3.45;;;10.50;99.90;;;;;;5071586;28;20033;-81
2022/11/25 00:09:35;;;;;;;8.48;3.35;;;10.30;99.90;;;;;;5071789;28;20051;-81
2022/11/25 00:12:01;;;;;;;8.50;3.22;;;10.30;99.90;;;;;;5071541;28;20033;-81
2022/11/25 00:14:27;;;;;;;8.07;3.80;;;10.30;99.90;;;;;;5071519;28;20135;-81
2022/11/25 00:16:52;;;;;;;8.75;3.08;;;10.30;99.90;;;;;;5071525;28;20048;-81
2022/11/25 00:19:18;;;;;;;6.93;2.72;;;10.30;99.90;;;;;;5054346;28;20025;-81
2022/11/25 00:21:44;;;;;;;9.18;3.20;;;10.40;99.90;;;;;;5055141;28;20046;-81
2022/11/25 00:24:13;;;;;;;8.63;3.53;;;10.40;99.90;;;;;;5055225;28;20029;-81
2022/11/25 00:26:39;;;;;;;12.15;4.85;;;10.40;99.90;;;;;;5054954;28;20029;-81
2022/11/25 00:29:06;;;;;;;9.57;4.20;;;10.70;99.90;;;;;;5055675;28;20477;-81
2022/11/25 00:31:34;;;;;;;9.10;2.75;;;10.30;99.90;;;;;;5055057;28;20051;-81
2022/11/25 00:34:00;;;;;;;7.47;2.90;;;10.40;99.90;;;;;;5071021;28;20443;-81
2022/11/25 00:36:34;;;;;;;7.28;2.60;;;10.70;99.90;;;;;;5075087;28;20086;-81
2022/11/25 00:39:04;;;;;;;8.95;2.95;;;10.40;99.90;;;;;;5074860;28;20025;-81
2022/11/25 00:44:36;;;;;;;8.57;2.35;;;10.50;99.90;;;;;;5074829;28;20031;-81
2022/11/25 00:47:15;;;;;;;7.47;2.42;;;10.60;99.90;;;;;;5074307;28;20028;-81
2022/11/25 00:49:42;;;;;;;8.65;2.88;;;10.70;99.90;;;;;;5074769;28;20507;-81
2022/11/25 00:52:11;;;;;;;7.60;2.58;;;10.60;99.90;;;;;;5074692;28;20082;-81
2022/11/25 00:54:37;;;;;;;8.25;2.50;;;10.50;99.90;;;;;;5074589;28;20370;-81
2022/11/25 00:57:02;;;;;;;7.70;2.97;;;10.80;99.90;;;;;;5074363;28;20123;-81
2022/11/25 00:59:28;;;;;;;8.07;2.67;;;10.50;99.90;;;;;;5074578;28;20016;-81
2022/11/25 01:01:54;;;;;;;7.55;2.45;;;10.90;99.90;;;;;;5074222;28;20485;-81
2022/11/25 01:04:20;;;;;;;8.77;2.50;;;10.70;99.90;;;;;;5074688;28;20100;-81
2022/11/25 01:06:45;;;;;;;9.13;2.47;;;10.80;99.90;;;;;;5075583;28;20182;-81
2022/11/25 01:09:12;;;;;;;7.82;2.55;;;10.60;99.90;;;;;;5074940;28;20029;-81
2022/11/25 01:11:37;;;;;;;11.57;2.85;;;10.60;99.90;;;;;;5074252;28;20370;-81
2022/11/25 01:14:03;;;;;;;7.35;2.53;;;10.60;99.90;;;;;;5074274;28;20034;-81
2022/11/25 01:16:29;;;;;;;10.57;2.47;;;10.70;99.90;;;;;;5073931;28;20048;-81
2022/11/25 01:18:55;;;;;;;8.80;2.70;;;10.70;99.90;;;;;;5057430;28;20021;-81
2022/11/25 01:21:25;;;;;;;9.15;2.67;;;10.70;99.90;;;;;;5054117;28;20037;-81
2022/11/25 01:23:52;;;;;;;9.20;2.55;;;10.70;99.90;;;;;;5054239;28;20031;-81
2022/11/25 01:26:24;;;;;;;6.72;2.58;;;10.70;99.90;;;;;;5053862;28;20029;-81
2022/11/25 01:28:59;;;;;;;7.30;2.67;;;10.80;99.90;;;;;;5053815;28;20021;-82
2022/11/25 01:31:27;;;;;;;7.38;2.60;;;10.70;99.90;;;;;;5052860;28;20075;-81
2022/11/25 01:34:00;;;;;;;10.75;2.65;;;10.70;99.90;;;;;;5069769;28;20049;-81
2022/11/25 01:36:26;;;;;;;8.75;2.85;;;10.80;99.90;;;;;;5073651;28;20029;-80
2022/11/25 01:38:55;;;;;;;5.50;2.40;;;10.70;99.90;;;;;;5073734;28;20528;-81
2022/11/25 01:41:21;;;;;;;9.00;2.95;;;10.70;99.90;;;;;;5074524;28;20460;-81
2022/11/25 01:44:18;;;;;;;6.80;2.30;;;10.80;99.90;;;;;;5074579;28;20050;-81
2022/11/25 01:46:57;;;;;;;9.05;2.90;;;10.80;99.90;;;;;;5073512;28;20082;-81
2022/11/25 01:49:29;;;;;;;6.55;2.50;;;10.70;99.90;;;;;;5073425;28;20031;-81
2022/11/25 01:52:04;;;;;;;8.10;2.78;;;10.60;99.90;;;;;;5073677;28;20081;-81
2022/11/25 01:54:36;;;;;;;7.18;2.47;;;10.60;99.90;;;;;;5073393;28;20086;-81
2022/11/25 01:57:20;;;;;;;10.50;2.55;;;10.60;99.90;;;;;;5073581;28;20115;-81
2022/11/25 01:59:50;;;;;;;9.63;2.47;;;10.50;99.90;;;;;;5073017;28;20488;-81
2022/11/25 02:02:17;;;;;;;7.72;2.40;;;10.50;99.90;;;;;;5072987;28;20480;-81
2022/11/25 02:04:45;;;;;;;8.23;2.88;;;10.60;99.90;;;;;;5073219;28;20553;-81
2022/11/25 02:07:18;;;;;;;7.38;2.58;;;10.60;99.90;;;;;;5071855;28;20028;-81
2022/11/25 02:09:46;;;;;;;7.50;2.70;;;10.60;99.90;;;;;;5073159;28;20373;-81
2022/11/25 02:12:14;;;;;;;12.18;2.83;;;10.60;99.90;;;;;;5073583;28;20035;-81
2022/11/25 02:14:40;;;;;;;7.40;2.53;;;10.60;99.90;;;;;;5072792;28;20472;-81
2022/11/25 02:17:06;;;;;;;7.97;2.50;;;10.70;99.90;;;;;;5071164;28;20068;-81
2022/11/25 02:20:00;;;;;;;8.20;2.58;;;10.70;99.90;;;;;;5052898;28;20056;-81
2022/11/25 02:22:51;;;;;;;7.43;2.60;;;10.60;99.90;;;;;;5053008;28;20059;-81
2022/11/25 02:25:39;;;;;;;8.30;2.45;;;10.60;99.90;;;;;;5052793;28;20025;-81
2022/11/25 02:28:23;;;;;;;8.80;2.28;;;10.40;99.90;;;;;;5052520;28;20504;-81
2022/11/25 02:30:49;;;;;;;8.60;2.63;;;10.40;99.90;;;;;;5052620;28;20032;-81
2022/11/25 02:33:15;;;;;;;7.10;2.30;;;10.40;99.90;;;;;;5063830;28;20412;-81
2022/11/25 02:35:48;;;;;;;5.30;2.22;;;10.30;99.90;;;;;;5073117;28;20033;-81
2022/11/25 02:38:35;;;;;;;6.93;2.22;;;10.50;99.90;;;;;;5072495;28;20036;-81
2022/11/25 02:41:18;;;;;;;5.60;2.10;;;10.40;99.90;;;;;;5070870;28;20396;-81
2022/11/25 02:43:44;;;;;;;5.95;2.15;;;10.40;99.90;;;;;;5072027;28;20039;-81
2022/11/25 02:46:16;;;;;;;7.13;2.40;;;10.50;99.90;;;;;;5072920;28;20385;-81
2022/11/25 02:48:42;;;;;;;6.13;2.05;;;10.40;99.90;;;;;;5072448;28;20036;-81
2022/11/25 02:51:16;;;;;;;6.00;2.05;;;10.60;99.90;;;;;;5072427;28;20029;-81
2022/11/25 02:53:42;;;;;;;8.32;2.40;;;10.50;99.90;;;;;;5072642;28;20384;-81
2022/11/25 02:56:09;;;;;;;7.57;2.33;;;10.50;99.90;;;;;;5072358;28;20028;-81
2022/11/25 02:58:34;;;;;;;5.55;2.03;;;10.40;99.90;;;;;;5071749;28;20040;-81
2022/11/25 03:01:00;;;;;;;6.65;2.20;;;10.40;99.90;;;;;;5072388;28;20012;-81
2022/11/25 03:03:26;;;;;;;7.72;2.30;;;10.70;99.90;;;;;;5073576;28;20032;-81
2022/11/25 03:05:51;;;;;;;8.55;2.30;;;10.30;99.90;;;;;;5072330;28;20091;-81
2022/11/25 03:08:17;;;;;;;7.70;2.10;;;10.20;99.90;;;;;;5072293;28;20021;-80
2022/11/25 03:10:43;;;;;;;10.60;2.30;;;10.10;99.90;;;;;;5072566;28;20116;-81
2022/11/25 03:13:09;;;;;;;7.72;2.55;;;10.10;99.90;;;;;;5071884;28;20035;-81
2022/11/25 03:15:35;;;;;;;8.48;2.17;;;10.10;99.90;;;;;;5070931;28;20035;-81
2022/11/25 03:18:02;;;;;;;6.05;2.20;;;10.30;99.90;;;;;;5063121;28;20049;-80
2022/11/25 03:20:28;;;;;;;6.03;2.17;;;10.70;99.90;;;;;;5052013;28;20531;-81
2022/11/25 03:22:53;;;;;;;5.45;2.03;;;10.30;99.90;;;;;;5052162;28;20037;-81
2022/11/25 03:25:19;;;;;;;6.35;2.60;;;10.20;99.90;;;;;;5051966;28;20029;-81
2022/11/25 03:27:45;;;;;;;5.40;2.20;;;10.50;99.90;;;;;;5051486;28;20052;-81
2022/11/25 03:30:18;;;;;;;7.15;2.42;;;10.10;99.90;;;;;;5051904;28;20028;-80
2022/11/25 03:32:44;;;;;;;7.93;2.22;;;10.10;99.90;;;;;;5058443;28;20045;-81
2022/11/25 03:35:10;;;;;;;7.20;2.28;;;10.40;99.90;;;;;;5071924;28;20050;-81
2022/11/25 03:37:36;;;;;;;5.57;2.05;;;10.10;99.90;;;;;;5071802;28;20059;-81
2022/11/25 03:40:02;;;;;;;8.23;2.10;;;10.40;99.90;;;;;;5071882;28;20029;-81
2022/11/25 03:42:28;;;;;;;7.22;1.95;;;10.00;99.90;;;;;;5071385;28;20033;-81
2022/11/25 03:44:54;;;;;;;6.10;2.22;;;10.40;99.90;;;;;;5072279;28;20024;-81
2022/11/25 03:47:19;;;;;;;6.90;2.15;;;9.80;99.90;;;;;;5072025;28;20029;-81
2022/11/25 03:49:45;;;;;;;8.55;2.40;;;10.20;99.90;;;;;;5070485;28;20062;-81
2022/11/25 03:52:10;;;;;;;7.40;1.88;;;9.90;99.90;;;;;;5071874;28;20024;-81
2022/11/25 03:54:36;;;;;;;6.35;1.90;;;9.80;99.90;;;;;;5075224;28;20020;-79
2022/11/25 03:57:02;;;;;;;6.35;2.15;;;9.60;99.90;;;;;;5075333;28;20040;-81
2022/11/25 03:59:27;;;;;;;9.65;2.20;;;10.00;99.90;;;;;;5075541;28;20017;-81
2022/11/25 04:01:53;;;;;;;7.63;2.65;;;9.90;99.90;;;;;;5075853;28;20097;-81
2022/11/25 04:04:18;;;;;;;6.72;1.80;;;9.40;99.90;;;;;;5075418;28;20028;-81
2022/11/25 04:06:44;;;;;;;7.90;2.40;;;9.40;99.90;;;;;;5075400;28;20084;-81
2022/11/25 04:09:13;;;;;;;5.78;2.10;;;9.40;99.90;;;;;;5075118;28;20029;-81
2022/11/25 04:14:23;;;;;;;5.38;2.40;;;9.00;99.90;;;;;;5075666;28;20085;-80
2022/11/25 04:16:49;;;;;;;6.63;2.17;;;9.10;99.90;;;;;;5075077;28;20439;-81
2022/11/25 04:19:14;;;;;;;8.85;2.65;;;9.00;99.90;;;;;;5055940;28;20151;-80
2022/11/25 04:21:40;;;;;;;6.03;2.38;;;8.90;99.90;;;;;;5055191;28;20500;-81
2022/11/25 04:24:06;;;;;;;6.47;2.25;;;8.90;99.90;;;;;;5055019;28;20021;-81
2022/11/25 04:26:32;;;;;;;9.70;2.15;;;8.80;99.90;;;;;;5054926;28;20486;-81
2022/11/25 04:28:57;;;;;;;6.82;2.58;;;8.80;99.90;;;;;;5055011;28;20025;-81
2022/11/25 04:31:23;;;;;;;6.85;2.42;;;8.70;99.90;;;;;;5055134;28;20048;-80
2022/11/25 04:33:48;;;;;;;7.93;2.35;;;8.60;99.90;;;;;;5070024;28;20497;-81
2022/11/25 04:36:15;;;;;;;5.60;2.30;;;8.60;99.90;;;;;;5075225;28;20066;-81
2022/11/25 04:38:40;;;;;;;5.95;2.10;;;8.40;99.90;;;;;;5074269;28;20052;-81
2022/11/25 04:41:06;;;;;;;6.00;2.38;;;8.40;99.90;;;;;;5074848;28;20021;-81
2022/11/25 04:43:32;;;;;;;11.40;2.50;;;8.30;99.90;;;;;;5074894;28;20107;-80
2022/11/25 04:45:58;;;;;;;7.78;2.60;;;8.20;99.90;;;;;;5074681;28;20024;-81
2022/11/25 04:48:24;;;;;;;7.55;2.60;;;8.20;99.90;;;;;;5074819;28;20029;-81
2022/11/25 04:50:49;;;;;;;7.38;2.92;;;8.20;99.90;;;;;;5074995;28;20028;-80
2022/11/25 04:53:15;;;;;;;8.23;2.83;;;8.20;99.90;;;;;;5074281;28;20044;-81
2022/11/25 04:55:41;;;;;;;8.40;2.83;;;8.30;99.90;;;;;;5075287;28;20074;-81
2022/11/25 04:58:06;;;;;;;6.97;2.85;;;8.30;99.90;;;;;;5074524;28;20089;-81
2022/11/25 05:00:32;;;;;;;8.82;2.60;;;8.20;99.90;;;;;;5074551;28;20028;-81
2022/11/25 05:02:57;;;;;;;6.00;3.13;;;8.30;99.90;;;;;;5075194;28;20150;-81
2022/11/25 05:05:23;;;;;;;6.32;3.40;;;8.20;99.90;;;;;;5074337;28;20027;-81
2022/11/25 05:07:49;;;;;;;8.80;4.22;;;8.10;99.90;;;;;;5074115;28;20416;-81
2022/11/25 05:10:14;;;;;;;8.93;3.72;;;8.10;99.90;;;;;;5074551;28;20028;-81
2022/11/25 05:12:40;;;;;;;11.32;4.18;;;8.10;99.90;;;;;;5074364;28;20044;-81
2022/11/25 05:15:07;;;;;;;11.70;3.88;;;8.00;99.90;;;;;;5074572;28;20089;-81
2022/11/25 05:17:33;;;;;;;6.93;3.13;;;8.10;99.90;;;;;;5068840;28;20037;-81
2022/11/25 05:19:59;;;;;;;10.68;3.60;;;8.00;99.90;;;;;;5054486;28;20179;-81
2022/11/25 05:22:30;;;;;;;9.90;3.30;;;8.30;99.90;;;;;;5053870;28;20103;-81
2022/11/25 05:24:56;;;;;;;8.23;3.40;;;7.90;99.90;;;;;;5053940;28;20033;-81
2022/11/25 05:27:23;;;;;;;12.38;3.35;;;7.80;99.90;;;;;;5054411;28;20032;-81
2022/11/25 05:29:48;;;;;;;10.13;3.65;;;7.80;99.90;;;;;;5053812;28;20374;-80
2022/11/25 05:32:15;;;;;;;7.72;3.15;;;7.80;99.90;;;;;;5055848;28;20047;-81
2022/11/25 05:34:41;;;;;;;8.10;3.03;;;7.80;99.90;;;;;;5073822;28;20500;-81
2022/11/25 05:37:09;;;;;;;9.85;3.50;;;7.70;99.90;;;;;;5073319;28;20032;-81
2022/11/25 05:39:34;;;;;;;9.43;3.90;;;7.90;99.90;;;;;;5073913;28;20036;-81
2022/11/25 05:42:00;;;;;;;10.13;3.58;;;7.60;99.90;;;;;;5073691;28;20028;-81
2022/11/25 05:44:26;;;;;;;9.00;3.50;;;7.60;99.90;;;;;;5073634;28;20542;-81
2022/11/25 05:46:52;;;;;;;12.82;4.00;;;7.60;99.90;;;;;;5074391;28;20444;-81
2022/11/25 05:49:18;;;;;;;8.38;3.80;;;7.60;99.90;;;;;;5073419;28;20105;-81
2022/11/25 05:51:44;;;;;;;9.98;3.95;;;7.50;99.90;;;;;;5073579;28;20464;-80
2022/11/25 05:54:10;;;;;;;9.63;3.95;;;7.50;99.90;;;;;;5073460;28;20033;-80
2022/11/25 05:56:36;;;;;;;8.77;4.35;;;7.50;99.90;;;;;;5073671;28;20090;-80
2022/11/25 05:59:03;;;;;;;9.25;4.13;;;7.50;99.90;;;;;;5073307;28;20024;-80
2022/11/25 06:01:29;;;;;;;9.68;3.88;;;7.40;99.90;;;;;;5074055;28;20036;-80
2022/11/25 06:03:58;;;;;;;10.15;4.50;;;7.40;99.90;;;;;;5073211;28;20028;-80
2022/11/25 06:06:23;;;;;;;12.63;4.50;;;7.40;99.90;;;;;;5072793;28;20028;-81
2022/11/25 06:08:49;;;;;;;10.40;4.82;;;7.30;99.90;;;;;;5073050;28;20043;-81
2022/11/25 06:11:16;;;;;;;9.68;4.50;;;7.30;99.90;;;;;;5072969;28;20060;-81
2022/11/25 06:13:43;;;;;;;10.15;4.45;;;7.40;99.90;;;;;;5072940;28;20559;-81
2022/11/25 06:16:18;;;;;;;11.95;4.68;;;7.20;99.90;;;;;;5072785;28;20032;-81
2022/11/25 06:18:44;;;;;;;11.45;4.85;;;7.10;99.90;;;;;;5058207;28;20041;-81
2022/11/25 06:21:11;;;;;;;9.90;4.47;;;7.10;99.90;;;;;;5052391;28;20024;-81
2022/11/25 06:23:37;;;;;;;7.78;5.03;;;7.50;99.90;;;;;;5052827;28;20028;-81
2022/11/25 06:26:21;;;;;;;9.57;5.30;;;7.10;99.90;;;;;;5052984;28;20029;-81
2022/11/25 06:28:51;;;;;;;8.65;5.38;;;7.10;99.90;;;;;;5053137;28;20025;-80
2022/11/25 06:31:19;;;;;;;8.15;5.15;;;7.40;99.90;;;;;;5052424;28;20033;-81
2022/11/25 06:33:49;;;;;;;9.45;5.32;;;7.10;99.90;;;;;;5067101;28;20052;-81
2022/11/25 06:36:16;;;;;;;8.40;5.03;;;7.10;99.90;;;;;;5072022;28;20074;-81
2022/11/25 06:38:43;;;;;;;8.82;4.53;;;7.00;99.90;;;;;;5072511;28;20180;-81
2022/11/25 06:41:09;;;;;;;11.95;4.80;;;7.00;99.90;;;;;;5072444;28;20052;-80
2022/11/25 06:43:34;;;;;;;10.13;4.82;;;6.90;99.90;;;;;;5072442;28;20133;-81
2022/11/25 06:46:05;;;;;;;11.07;6.50;;;7.00;99.90;;;;;;5072863;28;20029;-81
2022/11/25 06:48:31;;;;;;;12.93;5.85;;;7.00;99.90;;;;;;5072270;28;20538;-80
2022/11/25 06:51:02;;;;;;;14.13;6.28;;;6.90;99.90;;;;;;5071824;28;20479;-81
2022/11/25 06:53:29;;;;;;;12.30;6.47;;;7.00;99.90;;;;;;5072227;28;20028;-80
2022/11/25 06:56:05;;;;;;;16.27;7.53;;;7.10;99.90;;;;;;5072131;28;20099;-80
2022/11/25 06:58:31;;;;;;;11.60;6.32;;;7.20;99.90;;;;;;5072183;28;20105;-81
2022/11/25 07:01:04;;;;;;;11.65;6.15;;;7.90;99.90;;;;;;5072523;28;20461;-80
2022/11/25 07:03:29;;;;;;;8.55;5.28;;;7.40;99.90;;;;;;5072349;28;20029;-80
2022/11/25 07:05:57;;;;;;;11.43;4.47;;;8.00;99.90;;;;;;5071987;28;20029;-80
2022/11/25 07:08:23;;;;;;;7.35;4.43;;;7.60;99.90;;;;;;5072098;28;20047;-81
2022/11/25 07:10:49;;;;;;;9.95;5.00;;;7.70;99.90;;;;;;5072076;28;20042;-80
2022/11/25 07:13:15;;;;;;;9.57;4.95;;;8.10;99.90;;;;;;5072304;28;20056;-81
2022/11/25 07:15:41;;;;;;;12.77;5.80;;;7.40;99.90;;;;;;5072074;28;20463;-80
2022/11/25 07:18:06;;;;;;;11.23;6.30;;;7.30;99.90;;;;;;5061871;28;20072;-80
2022/11/25 07:20:32;;;;;;;17.05;6.60;;;7.10;99.90;;;;;;5052267;28;20044;-81
2022/11/25 07:22:57;;;;;;;12.55;6.63;;;7.20;99.90;;;;;;5052042;28;20029;-81
2022/11/25 07:25:23;;;;;;;11.77;6.00;;;7.10;99.90;;;;;;5052105;28;20025;-80
2022/11/25 07:27:48;;;;;;;11.25;6.38;;;7.10;99.90;;;;;;5052519;28;20029;-81
2022/11/25 07:30:14;;;;;;;12.10;5.95;;;7.20;99.90;;;;;;5055976;28;20189;-81
2022/11/25 07:32:40;;;;;;;11.68;6.03;;;7.30;99.90;;;;;;5061380;28;20151;-81
2022/11/25 07:35:06;;;;;;;12.88;5.72;;;7.50;99.90;;;;;;5075871;28;20104;-81
2022/11/25 07:37:32;;;;;;;11.18;5.35;;;8.10;99.90;;;;;;5076461;28;20032;-81
2022/11/25 07:39:57;;;;;;;11.88;5.80;;;8.20;99.90;;;;;;5075786;28;20039;-81
2022/11/25 07:42:23;;;;;;;12.52;5.10;;;8.20;99.90;;;;;;5075803;28;20488;-81
2022/11/25 07:44:49;;;;;;;10.45;5.20;;;8.20;99.90;;;;;;5075779;28;20035;-81
2022/11/25 07:47:14;;;;;;;11.95;5.32;;;8.30;99.90;;;;;;5075479;28;20028;-80
2022/11/25 07:49:40;;;;;;;9.35;5.10;;;8.40;99.90;;;;;;5076024;28;20036;-80
2022/11/25 07:52:06;;;;;;;8.82;5.32;;;8.30;99.90;;;;;;5075738;28;20036;-80
2022/11/25 07:54:32;;;;;;;11.75;5.80;;;8.30;99.90;;;;;;5075687;28;20027;-81
2022/11/25 07:56:58;;;;;;;11.10;6.43;;;8.40;99.90;;;;;;5075409;28;20044;-81
2022/11/25 07:59:23;;;;;;;12.82;6.15;;;8.40;99.90;;;;;;5075944;28;20395;-81
2022/11/25 08:01:50;;;;;;;7.95;4.93;;;8.70;99.90;;;;;;5075178;28;20039;-81
2022/11/25 08:04:16;;;;;;;9.93;5.50;;;8.50;99.90;;;;;;5075395;28;20048;-81
2022/11/25 08:06:43;;;;;;;10.85;5.20;;;8.80;99.90;;;;;;5075551;28;20052;-80
2022/11/25 08:09:12;;;;;;;13.32;5.93;;;8.80;99.90;;;;;;5075581;28;20477;-80
2022/11/25 08:11:38;;;;;;;11.07;5.68;;;8.60;99.90;;;;;;5075368;28;20027;-80
2022/11/25 08:14:04;;;;;;;9.82;5.07;;;8.60;99.90;;;;;;5075301;28;20032;-81
2022/11/25 08:16:30;;;;;;;9.18;5.07;;;9.10;99.90;;;;;;5075108;28;20460;-80
2022/11/25 08:18:57;;;;;;;12.07;6.00;;;8.70;99.90;;;;;;5058525;28;20580;-81
2022/11/25 08:21:23;;;;;;;15.27;7.15;;;9.40;99.90;;;;;;5055483;28;20108;-80
2022/11/25 08:23:51;;;;;;;9.70;5.22;;;9.40;99.90;;;;;;5054233;28;20029;-82
2022/11/25 08:26:29;;;;;;;15.88;6.35;;;9.30;99.90;;;;;;5054882;28;20096;-82
2022/11/25 08:28:56;;;;;;;13.20;6.65;;;9.70;99.90;;;;;;5054762;28;20040;-82
2022/11/25 08:31:24;;;;;;;11.20;5.63;;;9.70;99.90;;;;;;5054677;28;20521;-82
2022/11/25 08:33:50;;;;;;;10.38;5.63;;;10.00;99.90;;;;;;5070003;28;20052;-82
2022/11/25 08:36:16;;;;;;;13.43;5.88;;;10.40;99.90;;;;;;5075496;28;20074;-82
2022/11/25 08:38:44;;;;;;;13.93;5.93;;;11.60;99.90;;;;;;5074815;28;20075;-82
2022/11/25 08:41:29;;;;;;;11.55;5.60;;;13.70;99.90;;;;;;5075173;28;20043;-82
2022/11/25 08:43:56;;;;;;;11.63;5.50;;;13.20;99.90;;;;;;5074705;28;20028;-82
2022/11/25 08:46:25;;;;;;;13.27;5.70;;;14.30;99.90;;;;;;5074345;28;20041;-82
2022/11/25 08:48:51;;;;;;;12.77;6.32;;;16.10;99.90;;;;;;5074779;28;20099;-83
2022/11/25 08:51:23;;;;;;;14.10;6.88;;;16.40;99.90;;;;;;5074999;28;20110;-83
2022/11/25 08:53:52;;;;;;;11.75;6.65;;;14.80;99.90;;;;;;5074901;28;20031;-83
2022/11/25 08:56:20;;;;;;;11.60;6.40;;;13.00;99.90;;;;;;5073341;28;20020;-81
2022/11/25 08:58:47;;;;;;;11.45;6.40;;;11.70;99.90;;;;;;5074400;28;20395;-83
2022/11/25 09:01:13;;;;;;;11.88;7.13;;;12.00;99.90;;;;;;5074049;28;20086;-82
2022/11/25 09:03:42;;;;;;;14.40;7.82;;;11.50;99.90;;;;;;5073682;28;20028;-82
2022/11/25 09:06:09;;;;;;;13.18;7.38;;;11.90;99.90;;;;;;5074509;28;20028;-82
2022/11/25 09:08:36;;;;;;;15.65;7.40;;;11.80;99.90;;;;;;5071571;28;20060;-86
2022/11/25 09:11:02;;;;;;;15.68;7.55;;;11.90;99.90;;;;;;5052932;28;20021;-83
2022/11/25 09:13:28;;;;;;;13.02;7.93;;;11.80;99.90;;;;;;5053827;28;20401;-82
2022/11/25 09:15:54;;;;;;;12.00;7.22;;;11.70;99.90;;;;;;5053887;28;20029;-84
2022/11/25 09:18:24;;;;;;;17.92;8.18;;;11.30;99.90;;;;;;5053260;28;20079;-82
2022/11/25 09:20:50;;;;;;;11.35;6.95;;;11.00;99.90;;;;;;5054022;28;20025;-81
2022/11/25 09:23:15;;;;;;;10.73;7.35;;;10.90;99.90;;;;;;5054134;28;20032;-82
2022/11/25 09:25:41;;;;;;;12.98;7.22;;;11.10;99.90;;;;;;5053860;28;20401;-80
2022/11/25 09:28:08;;;;;;;13.10;7.35;;;10.80;99.90;;;;;;5054391;28;20108;-80
2022/11/25 09:30:36;;;;;;;13.82;7.15;;;11.00;99.90;;;;;;5054165;28;20037;-82
2022/11/25 09:33:01;;;;;;;14.48;7.20;;;10.80;99.90;;;;;;5053766;28;20505;-82
2022/11/25 09:35:27;;;;;;;13.18;7.38;;;11.10;99.90;;;;;;5053753;28;20028;-81
2022/11/25 09:37:53;;;;;;;10.57;6.57;;;11.10;99.90;;;;;;5053409;28;20065;-81
2022/11/25 09:40:40;;;;;;;15.23;7.13;;;11.50;99.90;;;;;;5053508;28;20092;-81
2022/11/25 09:49:11;;;;;;;14.68;7.05;;;11.30;99.90;;;;;;5053516;28;20052;-82
2022/11/25 09:51:59;;;;;;;13.05;7.13;;;11.50;99.90;;;;;;5052448;28;20066;-81
2022/11/25 09:55:05;;;;;;;12.98;7.57;;;11.30;99.90;;;;;;5052796;28;20103;-82
2022/11/25 09:58:08;;;;;;;13.30;6.65;;;11.40;99.90;;;;;;5046362;28;20409;-82
2022/11/25 10:00:41;;;;;;;14.23;7.10;;;11.70;99.90;;;;;;5033797;28;20048;-82
2022/11/25 10:03:25;;;;;;;14.63;6.63;;;11.70;99.90;;;;;;5044322;28;20043;-82
2022/11/25 10:06:00;;;;;;;14.88;6.50;;;11.60;99.90;;;;;;5053393;28;20389;-82
2022/11/25 10:08:32;;;;;;;12.80;6.32;;;11.50;99.90;;;;;;5053210;28;20032;-82
2022/11/25 10:11:10;;;;;;;12.93;6.97;;;11.30;99.90;;;;;;5052928;28;20039;-83
2022/11/25 10:14:02;;;;;;;12.88;7.10;;;11.50;99.90;;;;;;5052305;28;20032;-82
2022/11/25 10:16:40;;;;;;;18.75;8.02;;;11.50;99.90;;;;;;5044645;28;20481;-82
2022/11/25 10:19:23;;;;;;;13.43;6.95;;;11.60;99.90;;;;;;5052561;28;20029;-82
2022/11/25 10:21:49;;;;;;;17.48;8.82;;;11.90;99.90;;;;;;5053605;28;20021;-82
2022/11/25 10:24:20;;;;;;;12.25;7.63;;;12.00;99.90;;;;;;5053031;28;20417;-82
2022/11/25 10:26:57;;;;;;;14.65;8.80;;;12.00;99.90;;;;;;5052498;28;20029;-82
2022/11/25 10:29:28;;;;;;;19.23;10.98;;;12.10;99.90;;;;;;5052785;28;20048;-82
2022/11/25 10:32:03;;;;;;;18.65;12.20;;;12.10;99.90;;;;;;5052702;28;20412;-82
2022/11/25 10:34:34;;;;;;;14.32;7.75;;;12.30;99.90;;;;;;5032725;28;20087;-82
2022/11/25 10:37:03;;;;;;;14.55;7.75;;;12.00;99.90;;;;;;5032964;28;20117;-82
2022/11/25 10:39:33;;;;;;;12.80;8.07;;;12.10;99.90;;;;;;5033216;28;20103;-82
2022/11/25 10:42:06;;;;;;;11.65;7.32;;;12.20;99.90;;;;;;5032324;28;20025;-83
2022/11/25 10:44:38;;;;;;;14.07;7.43;;;12.20;99.90;;;;;;5032598;28;20034;-83
2022/11/25 10:47:22;;;;;;;11.88;7.18;;;12.40;99.90;;;;;;5032690;28;20041;-83
2022/11/25 10:50:20;;;;;;;14.70;8.98;;;12.70;99.90;;;;;;5032675;28;20377;-83
2022/11/25 10:53:07;;;;;;;15.45;8.48;;;12.80;99.90;;;;;;5049755;28;20484;-82
2022/11/25 10:55:33;;;;;;;14.85;8.35;;;13.00;99.90;;;;;;5052128;28;20123;-83
2022/11/25 10:58:25;;;;;;;12.52;8.77;;;12.90;99.90;;;;;;5051441;28;20132;-82
2022/11/25 11:01:06;;;;;;;12.07;8.73;;;13.30;99.90;;;;;;5045834;28;20025;-83
2022/11/25 11:03:32;;;;;;;10.77;8.38;;;12.90;99.90;;;;;;5052019;28;20508;-82
2022/11/25 11:05:58;;;;;;;13.77;8.52;;;13.50;99.90;;;;;;5051633;28;20063;-83
2022/11/25 11:08:36;;;;;;;13.32;9.20;;;14.40;99.90;;;;;;5052317;28;20033;-82
2022/11/25 11:11:20;;;;;;;17.13;9.73;;;14.50;99.90;;;;;;5051478;28;20047;-83
2022/11/25 11:13:46;;;;;;;12.05;9.52;;;14.30;99.90;;;;;;5051741;28;20489;-83
2022/11/25 11:16:33;;;;;;;22.02;9.52;;;14.10;99.90;;;;;;5051660;28;20044;-81
2022/11/25 11:18:58;;;;;;;14.75;7.82;;;13.50;99.90;;;;;;5051520;28;20438;-81
2022/11/25 11:21:28;;;;;;;18.10;9.70;;;13.30;99.90;;;;;;5051793;28;20111;-81
2022/11/25 11:23:56;;;;;;;19.25;9.98;;;13.30;99.90;;;;;;5051974;28;20123;-80
2022/11/25 11:26:31;;;;;;;15.25;10.38;;;12.70;99.90;;;;;;5051339;28;20032;-81
2022/11/25 11:29:18;;;;;;;14.65;10.68;;;12.50;99.90;;;;;;5051848;28;20029;-82
2022/11/25 11:31:55;;;;;;;15.07;10.07;;;12.20;99.90;;;;;;5051139;28;20040;-80
2022/11/25 11:34:39;;;;;;;16.48;10.18;;;12.30;99.90;;;;;;5071381;28;20045;-80
2022/11/25 11:37:15;;;;;;;15.48;10.27;;;12.40;99.90;;;;;;5067201;28;20546;-83
2022/11/25 11:40:06;;;;;;;15.80;10.32;;;12.40;99.90;;;;;;5051000;28;20155;-83
2022/11/25 11:42:38;;;;;;;18.67;10.65;;;12.50;99.90;;;;;;5052185;28;20033;-87
2022/11/25 11:45:22;;;;;;;16.38;11.15;;;12.70;99.90;;;;;;5052576;28;20035;-86
2022/11/25 11:47:54;;;;;;;17.55;10.35;;;12.90;99.90;;;;;;5051024;28;20025;-83
2022/11/25 11:50:32;;;;;;;17.67;11.52;;;13.40;99.90;;;;;;5050410;28;20074;-81
2022/11/25 11:53:01;;;;;;;16.13;10.27;;;13.70;99.90;;;;;;5051970;28;20372;-82
2022/11/25 11:55:26;;;;;;;16.15;10.75;;;13.60;99.90;;;;;;5050727;28;20040;-83
2022/11/25 11:58:45;;;;;;;15.15;9.95;;;13.50;99.90;;;;;;5051850;28;20393;-83
2022/11/25 12:01:32;;;;;;;13.45;8.65;;;13.40;99.90;;;;;;5045884;28;20138;-83
2022/11/25 12:04:49;;;;;;;14.23;10.10;;;13.40;99.90;;;;;;5041366;28;20057;-83
2022/11/25 12:07:38;;;;;;;12.88;8.43;;;13.30;99.90;;;;;;4990078;28;20457;-83
2022/11/25 12:10:18;;;;;;;9.90;7.18;;;13.00;99.90;;;;;;4989808;28;20046;-83
2022/11/25 12:13:05;;;;;;;15.60;10.75;;;13.00;99.90;;;;;;4989919;28;20137;-83
2022/11/25 12:15:55;;;;;;;13.23;10.00;;;12.80;99.90;;;;;;4992177;28;20034;-82
2022/11/25 12:18:54;;;;;;;13.65;9.68;;;12.70;99.90;;;;;;4993326;28;20206;-83
2022/11/25 12:21:38;;;;;;;18.75;10.27;;;12.70;99.90;;;;;;4993268;28;20030;-83
2022/11/25 12:24:26;;;;;;;12.25;9.55;;;12.90;99.90;;;;;;4993125;28;20054;-82
2022/11/25 12:27:01;;;;;;;15.52;10.50;;;13.10;99.90;;;;;;4935075;29;20160;-83
2022/11/25 12:30:06;;;;;;;21.08;13.20;;;13.50;99.90;;;;;;4935762;29;20128;-82
2022/11/25 12:32:37;;;;;;;16.67;13.18;;;13.10;99.90;;;;;;4922070;29;20555;-84
2022/11/25 12:35:11;;;;;;;20.33;12.73;;;13.20;99.90;;;;;;4924451;29;20095;-85
2022/11/25 12:37:36;;;;;;;14.18;11.25;;;13.10;99.90;;;;;;4916367;29;20548;-84
2022/11/25 12:40:13;;;;;;;13.90;9.43;;;13.20;99.90;;;;;;4916381;29;20028;-83
2022/11/25 12:42:40;;;;;;;11.90;8.35;;;13.20;99.90;;;;;;4949048;28;20042;-83
2022/11/25 12:45:16;;;;;;;11.55;8.50;;;13.40;99.90;;;;;;4992664;28;20046;-83
2022/11/25 12:47:42;;;;;;;12.23;8.52;;;13.20;99.90;;;;;;4993862;28;20395;-82
2022/11/25 12:50:20;;;;;;;11.80;9.50;;;13.90;99.90;;;;;;4993178;28;20129;-84
2022/11/25 12:53:01;;;;;;;14.73;8.80;;;13.40;99.90;;;;;;4993129;28;20030;-84
2022/11/25 12:55:27;;;;;;;13.15;9.65;;;13.50;99.90;;;;;;4992868;28;20541;-83
2022/11/25 12:58:08;;;;;;;14.25;7.70;;;13.40;99.90;;;;;;4993171;28;20480;-83
2022/11/25 13:00:42;;;;;;;7.25;6.00;;;13.30;99.90;;;;;;4992973;28;20058;-83
2022/11/25 13:03:23;;;;;;;8.35;6.13;;;13.30;99.90;;;;;;5004150;28;20397;-83
2022/11/25 13:05:48;;;;;;;7.13;5.65;;;13.40;99.90;;;;;;5053629;28;20040;-82
2022/11/25 13:08:55;;;;;;;12.35;6.47;;;13.30;99.90;;;;;;5054191;28;20028;-83
2022/11/25 13:11:23;;;;;;;14.82;6.68;;;13.30;99.90;;;;;;5012424;28;20120;-83
2022/11/25 13:14:03;;;;;;;11.15;6.47;;;12.90;99.90;;;;;;5004131;28;20533;-83
2022/11/25 13:16:30;;;;;;;10.43;7.97;;;12.80;99.90;;;;;;5005574;28;20498;-83